sensor_id;sensor_type;location;lat;lon;timestamp;pressure;altitude;pressure_sealevel;temperature;humidity
11888;BME280;6003;42.756;23.130;2023-06-26T00:01:30;157094.94;;;18.14;100.00
11888;BME280;6003;42.756;23.130;2023-06-26T00:03:57;157084.31;;;18.10;100.00
11888;BME280;6003;42.756;23.130;2023-06-26T00:06:24;157089.59;;;18.12;100.00
11888;BME280;6003;42.756;23.130;2023-06-26T00:08:52;157090.91;;;18.12;100.00
11888;BME280;6003;42.756;23.130;2023-06-26T00:11:19;157088.28;;;18.11;100.00
11888;BME280;6003;42.756;23.130;2023-06-26T00:13:48;157101.59;;;18.16;100.00
11888;BME280;6003;42.756;23.130;2023-06-26T00:16:15;157100.25;;;18.16;100.00
11888;BME280;6003;42.756;23.130;2023-06-26T00:18:42;157105.53;;;18.18;100.00
11888;BME280;6003;42.756;23.130;2023-06-26T00:21:09;157102.91;;;18.17;100.00
11888;BME280;6003;42.756;23.130;2023-06-26T00:23:35;157108.22;;;18.19;100.00
11888;BME280;6003;42.756;23.130;2023-06-26T00:26:03;157116.22;;;18.22;100.00
11888;BME280;6003;42.756;23.130;2023-06-26T00:28:30;157124.19;;;18.25;100.00
11888;BME280;6003;42.756;23.130;2023-06-26T00:30:59;157116.22;;;18.22;100.00
11888;BME280;6003;42.756;23.130;2023-06-26T00:33:25;157110.88;;;18.20;100.00
11888;BME280;6003;42.756;23.130;2023-06-26T00:35:52;157114.88;;;18.21;100.00
11888;BME280;6003;42.756;23.130;2023-06-26T00:38:19;157114.88;;;18.21;100.00
11888;BME280;6003;42.756;23.130;2023-06-26T00:40:46;157126.81;;;18.26;100.00
11888;BME280;6003;42.756;23.130;2023-06-26T00:43:13;157109.56;;;18.19;100.00
11888;BME280;6003;42.756;23.130;2023-06-26T00:45:40;157105.53;;;18.18;100.00
11888;BME280;6003;42.756;23.130;2023-06-26T00:48:10;157101.59;;;18.16;100.00
11888;BME280;6003;42.756;23.130;2023-06-26T00:50:38;157105.53;;;18.18;100.00
11888;BME280;6003;42.756;23.130;2023-06-26T00:53:05;157117.53;;;18.22;100.00
11888;BME280;6003;42.756;23.130;2023-06-26T00:55:32;157108.22;;;18.19;100.00
11888;BME280;6003;42.756;23.130;2023-06-26T00:57:59;157097.56;;;18.15;100.00
11888;BME280;6003;42.756;23.130;2023-06-26T01:00:26;157098.88;;;18.15;100.00
11888;BME280;6003;42.756;23.130;2023-06-26T01:02:53;157096.25;;;18.14;100.00
11888;BME280;6003;42.756;23.130;2023-06-26T01:05:22;157080.31;;;18.08;100.00
11888;BME280;6003;42.756;23.130;2023-06-26T01:07:50;157069.69;;;18.04;100.00
11888;BME280;6003;42.756;23.130;2023-06-26T01:10:17;157059.03;;;18.00;100.00
11888;BME280;6003;42.756;23.130;2023-06-26T01:12:44;157045.72;;;17.95;100.00
11888;BME280;6003;42.756;23.130;2023-06-26T01:15:11;157036.44;;;17.91;100.00
11888;BME280;6003;42.756;23.130;2023-06-26T01:17:39;157025.81;;;17.87;100.00
11888;BME280;6003;42.756;23.130;2023-06-26T01:20:11;157021.81;;;17.86;100.00
11888;BME280;6003;42.756;23.130;2023-06-26T01:22:45;157008.50;;;17.80;100.00
11888;BME280;6003;42.756;23.130;2023-06-26T01:25:21;156999.16;;;17.77;100.00
11888;BME280;6003;42.756;23.130;2023-06-26T01:27:54;156991.19;;;17.74;100.00
11888;BME280;6003;42.756;23.130;2023-06-26T01:30:22;156975.25;;;17.68;100.00
11888;BME280;6003;42.756;23.130;2023-06-26T01:32:49;156960.63;;;17.62;100.00
11888;BME280;6003;42.756;23.130;2023-06-26T01:35:17;156959.31;;;17.62;100.00
11888;BME280;6003;42.756;23.130;2023-06-26T01:37:44;156946.03;;;17.56;100.00
11888;BME280;6003;42.756;23.130;2023-06-26T01:40:11;156938.06;;;17.53;100.00
11888;BME280;6003;42.756;23.130;2023-06-26T01:42:39;156932.72;;;17.51;100.00
11888;BME280;6003;42.756;23.130;2023-06-26T01:45:11;156924.75;;;17.48;100.00
11888;BME280;6003;42.756;23.130;2023-06-26T01:47:41;156911.47;;;17.43;100.00
11888;BME280;6003;42.756;23.130;2023-06-26T01:50:13;156910.13;;;17.43;100.00
11888;BME280;6003;42.756;23.130;2023-06-26T01:52:42;156907.50;;;17.42;100.00
11888;BME280;6003;42.756;23.130;2023-06-26T01:55:16;156902.16;;;17.40;100.00
11888;BME280;6003;42.756;23.130;2023-06-26T01:57:45;156887.53;;;17.34;100.00
11888;BME280;6003;42.756;23.130;2023-06-26T02:00:16;156887.53;;;17.34;100.00
11888;BME280;6003;42.756;23.130;2023-06-26T02:02:44;156884.91;;;17.33;100.00
11888;BME280;6003;42.756;23.130;2023-06-26T02:05:12;156879.59;;;17.31;100.00
11888;BME280;6003;42.756;23.130;2023-06-26T02:07:39;156878.25;;;17.30;100.00
11888;BME280;6003;42.756;23.130;2023-06-26T02:10:07;156863.66;;;17.25;100.00
11888;BME280;6003;42.756;23.130;2023-06-26T02:12:34;156864.97;;;17.25;100.00
11888;BME280;6003;42.756;23.130;2023-06-26T02:15:01;156838.44;;;17.15;100.00
11888;BME280;6003;42.756;23.130;2023-06-26T02:17:30;156850.34;;;17.20;100.00
11888;BME280;6003;42.756;23.130;2023-06-26T02:19:57;156849.03;;;17.19;100.00
11888;BME280;6003;42.756;23.130;2023-06-26T02:22:24;156850.34;;;17.20;100.00
11888;BME280;6003;42.756;23.130;2023-06-26T02:24:50;156839.75;;;17.16;100.00
11888;BME280;6003;42.756;23.130;2023-06-26T02:27:17;156834.41;;;17.13;100.00
11888;BME280;6003;42.756;23.130;2023-06-26T02:29:44;156826.44;;;17.10;100.00
11888;BME280;6003;42.756;23.130;2023-06-26T02:32:11;156834.41;;;17.13;100.00
11888;BME280;6003;42.756;23.130;2023-06-26T02:34:39;156834.41;;;17.13;100.00
11888;BME280;6003;42.756;23.130;2023-06-26T02:37:06;156831.78;;;17.12;100.00
11888;BME280;6003;42.756;23.130;2023-06-26T02:39:34;156831.78;;;17.12;100.00
11888;BME280;6003;42.756;23.130;2023-06-26T02:42:01;156831.78;;;17.12;100.00
11888;BME280;6003;42.756;23.130;2023-06-26T02:44:27;156838.44;;;17.15;100.00
11888;BME280;6003;42.756;23.130;2023-06-26T02:46:55;156834.41;;;17.13;100.00
11888;BME280;6003;42.756;23.130;2023-06-26T02:49:22;156843.69;;;17.17;100.00
11888;BME280;6003;42.756;23.130;2023-06-26T02:51:50;156835.75;;;17.14;100.00
11888;BME280;6003;42.756;23.130;2023-06-26T02:54:17;156831.78;;;17.12;100.00
11888;BME280;6003;42.756;23.130;2023-06-26T02:56:46;156834.41;;;17.13;100.00
11888;BME280;6003;42.756;23.130;2023-06-26T02:59:13;156831.78;;;17.12;100.00
11888;BME280;6003;42.756;23.130;2023-06-26T03:01:40;156829.09;;;17.11;100.00
11888;BME280;6003;42.756;23.130;2023-06-26T03:04:07;156835.75;;;17.14;100.00
11888;BME280;6003;42.756;23.130;2023-06-26T03:06:34;156830.47;;;17.12;100.00
11888;BME280;6003;42.756;23.130;2023-06-26T03:09:02;156834.41;;;17.13;100.00
11888;BME280;6003;42.756;23.130;2023-06-26T03:11:29;156834.41;;;17.13;100.00
11888;BME280;6003;42.756;23.130;2023-06-26T03:13:56;156845.06;;;17.18;100.00
11888;BME280;6003;42.756;23.130;2023-06-26T03:16:23;156850.34;;;17.20;100.00
11888;BME280;6003;42.756;23.130;2023-06-26T03:18:50;156861.00;;;17.24;100.00
11888;BME280;6003;42.756;23.130;2023-06-26T03:21:17;156866.28;;;17.26;100.00
11888;BME280;6003;42.756;23.130;2023-06-26T03:23:44;156887.53;;;17.34;100.00
11888;BME280;6003;42.756;23.130;2023-06-26T03:26:12;156892.88;;;17.36;100.00
11888;BME280;6003;42.756;23.130;2023-06-26T03:28:39;156904.84;;;17.41;100.00
11888;BME280;6003;42.756;23.130;2023-06-26T03:31:07;156922.13;;;17.47;100.00
11888;BME280;6003;42.756;23.130;2023-06-26T03:33:34;156932.72;;;17.51;100.00
11888;BME280;6003;42.756;23.130;2023-06-26T03:36:01;156972.63;;;17.67;100.00
11888;BME280;6003;42.756;23.130;2023-06-26T03:38:28;157035.13;;;17.91;100.00
11888;BME280;6003;42.756;23.130;2023-06-26T03:40:55;157150.75;;;18.35;100.00
11888;BME280;6003;42.756;23.130;2023-06-26T03:43:24;157266.50;;;18.80;100.00
11888;BME280;6003;42.756;23.130;2023-06-26T03:45:50;157372.91;;;19.21;100.00
11888;BME280;6003;42.756;23.130;2023-06-26T03:48:18;157506.03;;;19.72;100.00
11888;BME280;6003;42.756;23.130;2023-06-26T03:50:45;157604.50;;;20.10;100.00
11888;BME280;6003;42.756;23.130;2023-06-26T03:53:12;157717.72;;;20.53;100.00
11888;BME280;6003;42.756;23.130;2023-06-26T03:55:39;157801.59;;;20.85;100.00
11888;BME280;6003;42.756;23.130;2023-06-26T03:58:05;157897.50;;;21.22;100.00
11888;BME280;6003;42.756;23.130;2023-06-26T04:00:34;157970.84;;;21.50;97.86
11888;BME280;6003;42.756;23.130;2023-06-26T04:03:01;157992.19;;;21.58;95.92
11888;BME280;6003;42.756;23.130;2023-06-26T04:05:28;158072.09;;;21.89;94.79
11888;BME280;6003;42.756;23.130;2023-06-26T04:07:55;158116.09;;;22.06;94.47
11888;BME280;6003;42.756;23.130;2023-06-26T04:10:22;158220.13;;;22.46;92.42
11888;BME280;6003;42.756;23.130;2023-06-26T04:12:49;158305.44;;;22.79;90.76
11888;BME280;6003;42.756;23.130;2023-06-26T04:15:15;158381.56;;;23.08;88.42
11888;BME280;6003;42.756;23.130;2023-06-26T04:17:44;158376.22;;;23.06;87.72
11888;BME280;6003;42.756;23.130;2023-06-26T04:20:11;158445.56;;;23.32;87.46
11888;BME280;6003;42.756;23.130;2023-06-26T04:22:38;158429.56;;;23.26;87.23
11888;BME280;6003;42.756;23.130;2023-06-26T04:25:05;158405.56;;;23.17;86.75
11888;BME280;6003;42.756;23.130;2023-06-26T04:27:33;158529.59;;;23.64;85.72
11888;BME280;6003;42.756;23.130;2023-06-26T04:30:00;158528.28;;;23.64;84.69
11888;BME280;6003;42.756;23.130;2023-06-26T04:32:27;158681.84;;;24.23;83.89
11888;BME280;6003;42.756;23.130;2023-06-26T04:34:56;158701.81;;;24.30;83.06
11888;BME280;6003;42.756;23.130;2023-06-26T04:37:23;158669.81;;;24.18;82.75
11888;BME280;6003;42.756;23.130;2023-06-26T04:39:50;158627.09;;;24.02;83.02
11888;BME280;6003;42.756;23.130;2023-06-26T04:42:17;158717.84;;;24.37;82.45
11888;BME280;6003;42.756;23.130;2023-06-26T04:44:47;158643.09;;;24.08;83.34
11888;BME280;6003;42.756;23.130;2023-06-26T04:47:13;158707.19;;;24.32;83.05
11888;BME280;6003;42.756;23.130;2023-06-26T04:49:41;158577.72;;;23.83;83.09
11888;BME280;6003;42.756;23.130;2023-06-26T04:52:12;158485.56;;;23.48;84.47
11888;BME280;6003;42.756;23.130;2023-06-26T04:54:40;158426.91;;;23.25;86.06
11888;BME280;6003;42.756;23.130;2023-06-26T04:57:19;158484.25;;;23.47;86.03
11888;BME280;6003;42.756;23.130;2023-06-26T04:59:45;158490.94;;;23.50;84.91
11888;BME280;6003;42.756;23.130;2023-06-26T05:02:12;158424.22;;;23.24;85.14
11888;BME280;6003;42.756;23.130;2023-06-26T05:04:40;158378.88;;;23.07;86.95
11888;BME280;6003;42.756;23.130;2023-06-26T05:07:08;158346.81;;;22.94;88.03
11888;BME280;6003;42.756;23.130;2023-06-26T05:09:36;158317.47;;;22.83;88.64
11888;BME280;6003;42.756;23.130;2023-06-26T05:12:04;158285.47;;;22.71;88.36
11888;BME280;6003;42.756;23.130;2023-06-26T05:14:31;158254.81;;;22.59;89.71
11888;BME280;6003;42.756;23.130;2023-06-26T05:16:58;158282.78;;;22.70;89.66
11888;BME280;6003;42.756;23.130;2023-06-26T05:19:25;158301.47;;;22.77;90.74
11888;BME280;6003;42.756;23.130;2023-06-26T05:21:52;158378.88;;;23.07;88.38
11888;BME280;6003;42.756;23.130;2023-06-26T05:24:20;158354.88;;;22.97;88.13
11888;BME280;6003;42.756;23.130;2023-06-26T05:26:50;158418.91;;;23.22;88.01
11888;BME280;6003;42.756;23.130;2023-06-26T05:29:18;158440.22;;;23.30;87.17
11888;BME280;6003;42.756;23.130;2023-06-26T05:31:45;158472.28;;;23.42;87.04
11888;BME280;6003;42.756;23.130;2023-06-26T05:34:14;158525.63;;;23.63;87.25
11888;BME280;6003;42.756;23.130;2023-06-26T05:36:42;158498.94;;;23.53;86.46
11888;BME280;6003;42.756;23.130;2023-06-26T05:39:09;158525.63;;;23.63;86.01
11888;BME280;6003;42.756;23.130;2023-06-26T05:41:36;158496.28;;;23.52;84.93
11888;BME280;6003;42.756;23.130;2023-06-26T05:44:05;158328.16;;;22.87;87.34
11888;BME280;6003;42.756;23.130;2023-06-26T05:46:32;158213.47;;;22.43;89.58
11888;BME280;6003;42.756;23.130;2023-06-26T05:48:59;158198.78;;;22.38;90.77
11888;BME280;6003;42.756;23.130;2023-06-26T05:51:27;158148.16;;;22.18;91.11
11888;BME280;6003;42.756;23.130;2023-06-26T05:53:54;158130.75;;;22.12;91.16
11888;BME280;6003;42.756;23.130;2023-06-26T05:56:22;158080.09;;;21.92;92.00
11888;BME280;6003;42.756;23.130;2023-06-26T05:58:49;158070.78;;;21.89;93.38
11888;BME280;6003;42.756;23.130;2023-06-26T06:01:18;158061.47;;;21.85;93.37
11888;BME280;6003;42.756;23.130;2023-06-26T06:03:45;158018.81;;;21.69;94.01
11888;BME280;6003;42.756;23.130;2023-06-26T06:06:12;158032.13;;;21.74;94.45
11888;BME280;6003;42.756;23.130;2023-06-26T06:08:39;158032.13;;;21.74;93.58
11888;BME280;6003;42.756;23.130;2023-06-26T06:11:06;157998.84;;;21.61;94.08
11888;BME280;6003;42.756;23.130;2023-06-26T06:13:33;158026.78;;;21.72;95.08
11888;BME280;6003;42.756;23.130;2023-06-26T06:15:59;158104.13;;;22.01;94.04
11888;BME280;6003;42.756;23.130;2023-06-26T06:18:28;158184.13;;;22.32;92.87
11888;BME280;6003;42.756;23.130;2023-06-26T06:20:55;158282.78;;;22.70;91.74
11888;BME280;6003;42.756;23.130;2023-06-26T06:23:22;158482.91;;;23.47;87.97
11888;BME280;6003;42.756;23.130;2023-06-26T06:25:50;158647.13;;;24.09;85.90
11888;BME280;6003;42.756;23.130;2023-06-26T06:28:17;158895.50;;;25.05;83.45
11888;BME280;6003;42.756;23.130;2023-06-26T06:30:44;159043.84;;;25.61;78.94
11888;BME280;6003;42.756;23.130;2023-06-26T06:33:13;159065.22;;;25.70;78.25
11888;BME280;6003;42.756;23.130;2023-06-26T06:35:41;159156.13;;;26.04;76.65
11888;BME280;6003;42.756;23.130;2023-06-26T06:38:08;159153.41;;;26.03;74.65
11888;BME280;6003;42.756;23.130;2023-06-26T06:40:35;159164.13;;;26.07;76.61
11888;BME280;6003;42.756;23.130;2023-06-26T06:43:01;159210.91;;;26.25;74.58
11888;BME280;6003;42.756;23.130;2023-06-26T06:45:29;159368.69;;;26.86;74.11
11888;BME280;6003;42.756;23.130;2023-06-26T06:47:57;159418.19;;;27.05;70.54
11888;BME280;6003;42.756;23.130;2023-06-26T06:50:23;159209.59;;;26.25;71.17
11888;BME280;6003;42.756;23.130;2023-06-26T06:52:52;159070.53;;;25.72;72.69
11888;BME280;6003;42.756;23.130;2023-06-26T06:55:18;158975.72;;;25.35;75.20
11888;BME280;6003;42.756;23.130;2023-06-26T06:57:46;159079.91;;;25.75;74.46
11888;BME280;6003;42.756;23.130;2023-06-26T07:00:13;159071.91;;;25.72;74.78
11888;BME280;6003;42.756;23.130;2023-06-26T07:02:43;159018.41;;;25.52;75.37
11888;BME280;6003;42.756;23.130;2023-06-26T07:05:11;158974.38;;;25.35;74.03
11888;BME280;6003;42.756;23.130;2023-06-26T07:07:38;158923.59;;;25.15;75.08
11888;BME280;6003;42.756;23.130;2023-06-26T07:10:10;158950.28;;;25.26;73.18
11888;BME280;6003;42.756;23.130;2023-06-26T07:12:37;159046.50;;;25.62;73.28
11888;BME280;6003;42.756;23.130;2023-06-26T07:15:06;159172.16;;;26.10;71.90
11888;BME280;6003;42.756;23.130;2023-06-26T07:17:33;159105.34;;;25.85;71.09
11888;BME280;6003;42.756;23.130;2023-06-26T07:20:01;158974.38;;;25.35;73.48
11888;BME280;6003;42.756;23.130;2023-06-26T07:22:29;158911.50;;;25.11;74.87
11888;BME280;6003;42.756;23.130;2023-06-26T07:24:56;158843.41;;;24.85;74.63
11888;BME280;6003;42.756;23.130;2023-06-26T07:27:25;158744.63;;;24.47;75.24
11888;BME280;6003;42.756;23.130;2023-06-26T07:29:52;158858.09;;;24.90;74.56
11888;BME280;6003;42.756;23.130;2023-06-26T07:32:19;159006.41;;;25.47;73.66
11888;BME280;6003;42.756;23.130;2023-06-26T07:34:46;159110.69;;;25.87;76.75
11888;BME280;6003;42.756;23.130;2023-06-26T07:37:13;159041.13;;;25.60;72.90
11888;BME280;6003;42.756;23.130;2023-06-26T07:39:39;159114.69;;;25.88;71.77
11888;BME280;6003;42.756;23.130;2023-06-26T07:42:07;159037.16;;;25.59;71.29
11888;BME280;6003;42.756;23.130;2023-06-26T07:44:35;158969.03;;;25.33;72.17
11888;BME280;6003;42.756;23.130;2023-06-26T07:47:02;159045.16;;;25.62;73.35
11888;BME280;6003;42.756;23.130;2023-06-26T07:49:30;159137.41;;;25.97;73.17
11888;BME280;6003;42.756;23.130;2023-06-26T07:51:59;159126.72;;;25.93;70.01
11888;BME280;6003;42.756;23.130;2023-06-26T07:54:27;159086.56;;;25.78;69.96
11888;BME280;6003;42.756;23.130;2023-06-26T07:56:55;159129.38;;;25.94;69.79
11888;BME280;6003;42.756;23.130;2023-06-26T07:59:24;159172.16;;;26.10;71.08
11888;BME280;6003;42.756;23.130;2023-06-26T08:01:54;159102.69;;;25.84;72.79
11888;BME280;6003;42.756;23.130;2023-06-26T08:04:23;159022.44;;;25.53;70.49
11888;BME280;6003;42.756;23.130;2023-06-26T08:06:52;158947.63;;;25.25;71.53
11888;BME280;6003;42.756;23.130;2023-06-26T08:09:21;159002.41;;;25.46;70.29
11888;BME280;6003;42.756;23.130;2023-06-26T08:11:48;158945.00;;;25.24;70.11
11888;BME280;6003;42.756;23.130;2023-06-26T08:14:16;158993.06;;;25.42;72.95
11888;BME280;6003;42.756;23.130;2023-06-26T08:16:44;159081.25;;;25.76;69.17
11888;BME280;6003;42.756;23.130;2023-06-26T08:19:14;159105.34;;;25.85;68.04
11888;BME280;6003;42.756;23.130;2023-06-26T08:21:41;159188.19;;;26.17;69.93
11888;BME280;6003;42.756;23.130;2023-06-26T08:24:09;159232.31;;;26.33;70.50
11888;BME280;6003;42.756;23.130;2023-06-26T08:26:37;159073.22;;;25.73;67.51
11888;BME280;6003;42.756;23.130;2023-06-26T08:29:03;159108.00;;;25.86;74.93
11888;BME280;6003;42.756;23.130;2023-06-26T08:31:33;159190.84;;;26.18;69.57
11888;BME280;6003;42.756;23.130;2023-06-26T08:34:01;159233.63;;;26.34;66.76
11888;BME280;6003;42.756;23.130;2023-06-26T08:36:30;159172.16;;;26.10;66.48
11888;BME280;6003;42.756;23.130;2023-06-26T08:38:57;159138.72;;;25.98;68.34
11888;BME280;6003;42.756;23.130;2023-06-26T08:41:24;159140.09;;;25.98;66.03
11888;BME280;6003;42.756;23.130;2023-06-26T08:43:51;159230.97;;;26.33;67.36
11888;BME280;6003;42.756;23.130;2023-06-26T08:46:19;159287.13;;;26.54;64.62
11888;BME280;6003;42.756;23.130;2023-06-26T08:48:49;159255.03;;;26.42;65.96
11888;BME280;6003;42.756;23.130;2023-06-26T08:51:21;159241.66;;;26.37;66.27
11888;BME280;6003;42.756;23.130;2023-06-26T08:53:56;159232.31;;;26.33;65.95
11888;BME280;6003;42.756;23.130;2023-06-26T08:56:24;159335.31;;;26.73;63.84
11888;BME280;6003;42.756;23.130;2023-06-26T08:58:52;159364.66;;;26.84;66.86
11888;BME280;6003;42.756;23.130;2023-06-26T09:01:18;159279.13;;;26.51;64.24
11888;BME280;6003;42.756;23.130;2023-06-26T09:03:47;159217.59;;;26.28;64.73
11888;BME280;6003;42.756;23.130;2023-06-26T09:06:14;159162.81;;;26.07;65.40
11888;BME280;6003;42.756;23.130;2023-06-26T09:08:41;159177.50;;;26.13;69.59
11888;BME280;6003;42.756;23.130;2023-06-26T09:11:09;159214.94;;;26.27;68.07
11888;BME280;6003;42.756;23.130;2023-06-26T09:13:37;159222.97;;;26.30;66.88
11888;BME280;6003;42.756;23.130;2023-06-26T09:16:06;159247.00;;;26.39;64.10
11888;BME280;6003;42.756;23.130;2023-06-26T09:18:33;159216.25;;;26.27;65.00
11888;BME280;6003;42.756;23.130;2023-06-26T09:21:06;159185.53;;;26.16;65.07
11888;BME280;6003;42.756;23.130;2023-06-26T09:23:33;159180.16;;;26.14;65.24
11888;BME280;6003;42.756;23.130;2023-06-26T09:26:02;159137.41;;;25.97;64.03
11888;BME280;6003;42.756;23.130;2023-06-26T09:28:32;159204.22;;;26.23;68.04
11888;BME280;6003;42.756;23.130;2023-06-26T09:31:03;159297.88;;;26.59;68.86
11888;BME280;6003;42.756;23.130;2023-06-26T09:33:34;159355.31;;;26.81;63.32
11888;BME280;6003;42.756;23.130;2023-06-26T09:36:05;159430.19;;;27.09;63.83
11888;BME280;6003;42.756;23.130;2023-06-26T09:38:33;159303.19;;;26.61;63.41
11888;BME280;6003;42.756;23.130;2023-06-26T09:41:01;159391.44;;;26.94;63.75
11888;BME280;6003;42.756;23.130;2023-06-26T09:43:28;159483.75;;;27.30;67.76
11888;BME280;6003;42.756;23.130;2023-06-26T09:45:58;159539.94;;;27.51;65.18
11888;BME280;6003;42.756;23.130;2023-06-26T09:48:25;159533.25;;;27.49;61.85
11888;BME280;6003;42.756;23.130;2023-06-26T09:50:53;159539.94;;;27.51;61.13
11888;BME280;6003;42.756;23.130;2023-06-26T09:53:20;159637.66;;;27.88;62.50
11888;BME280;6003;42.756;23.130;2023-06-26T09:55:47;159689.84;;;28.08;62.30
11888;BME280;6003;42.756;23.130;2023-06-26T09:58:15;159637.66;;;27.88;61.51
11888;BME280;6003;42.756;23.130;2023-06-26T10:00:43;159458.34;;;27.20;62.97
11888;BME280;6003;42.756;23.130;2023-06-26T10:03:12;159374.06;;;26.88;62.62
11888;BME280;6003;42.756;23.130;2023-06-26T10:05:40;159295.16;;;26.58;61.98
11888;BME280;6003;42.756;23.130;2023-06-26T10:08:07;159313.91;;;26.65;63.55
11888;BME280;6003;42.756;23.130;2023-06-26T10:10:36;159364.66;;;26.84;62.98
11888;BME280;6003;42.756;23.130;2023-06-26T10:13:08;159311.19;;;26.64;62.07
11888;BME280;6003;42.756;23.130;2023-06-26T10:15:39;159391.44;;;26.94;66.00
11888;BME280;6003;42.756;23.130;2023-06-26T10:18:07;159415.50;;;27.04;60.91
11888;BME280;6003;42.756;23.130;2023-06-26T10:20:36;159319.22;;;26.67;60.54
11888;BME280;6003;42.756;23.130;2023-06-26T10:23:05;159386.06;;;26.92;62.20
11888;BME280;6003;42.756;23.130;2023-06-26T10:25:37;159388.78;;;26.93;59.59
11888;BME280;6003;42.756;23.130;2023-06-26T10:28:08;159451.66;;;27.17;62.83
11888;BME280;6003;42.756;23.130;2023-06-26T10:30:37;159423.50;;;27.07;57.76
11888;BME280;6003;42.756;23.130;2023-06-26T10:33:05;159428.88;;;27.09;61.88
11888;BME280;6003;42.756;23.130;2023-06-26T10:35:42;159327.22;;;26.70;59.68
11888;BME280;6003;42.756;23.130;2023-06-26T10:38:10;159400.78;;;26.98;64.52
11888;BME280;6003;42.756;23.130;2023-06-26T10:40:41;159436.91;;;27.12;63.20
11888;BME280;6003;42.756;23.130;2023-06-26T10:43:09;159368.69;;;26.86;60.96
11888;BME280;6003;42.756;23.130;2023-06-26T10:45:37;159375.38;;;26.88;64.67
11888;BME280;6003;42.756;23.130;2023-06-26T10:48:09;159477.03;;;27.27;64.79
11888;BME280;6003;42.756;23.130;2023-06-26T10:50:36;159539.94;;;27.51;62.49
11888;BME280;6003;42.756;23.130;2023-06-26T10:53:15;159510.50;;;27.40;60.50
11888;BME280;6003;42.756;23.130;2023-06-26T10:55:48;159471.72;;;27.25;61.84
11888;BME280;6003;42.756;23.130;2023-06-26T10:58:32;159394.09;;;26.95;58.37
11888;BME280;6003;42.756;23.130;2023-06-26T11:01:17;159372.69;;;26.87;57.55
11888;BME280;6003;42.756;23.130;2023-06-26T11:03:46;159372.69;;;26.87;59.16
11888;BME280;6003;42.756;23.130;2023-06-26T11:06:17;159352.66;;;26.80;57.12
11888;BME280;6003;42.756;23.130;2023-06-26T11:08:46;159343.31;;;26.76;54.53
11888;BME280;6003;42.756;23.130;2023-06-26T11:11:13;159341.94;;;26.75;55.99
11888;BME280;6003;42.756;23.130;2023-06-26T11:13:40;159273.72;;;26.49;57.36
11888;BME280;6003;42.756;23.130;2023-06-26T11:16:08;159287.13;;;26.54;57.25
11888;BME280;6003;42.756;23.130;2023-06-26T11:18:35;159206.88;;;26.24;56.89
11888;BME280;6003;42.756;23.130;2023-06-26T11:21:06;159230.97;;;26.33;59.02
11888;BME280;6003;42.756;23.130;2023-06-26T11:23:34;159263.03;;;26.45;58.62
11888;BME280;6003;42.756;23.130;2023-06-26T11:26:16;159229.59;;;26.32;58.38
11888;BME280;6003;42.756;23.130;2023-06-26T11:28:51;159218.91;;;26.28;57.11
11888;BME280;6003;42.756;23.130;2023-06-26T11:31:24;159259.00;;;26.44;60.28
11888;BME280;6003;42.756;23.130;2023-06-26T11:33:53;159319.22;;;26.67;58.02
11888;BME280;6003;42.756;23.130;2023-06-26T11:36:23;159339.28;;;26.74;57.13
11888;BME280;6003;42.756;23.130;2023-06-26T11:38:52;159335.31;;;26.73;58.07
11888;BME280;6003;42.756;23.130;2023-06-26T11:41:21;159329.94;;;26.71;55.88
11888;BME280;6003;42.756;23.130;2023-06-26T11:43:49;159359.34;;;26.82;54.89
11888;BME280;6003;42.756;23.130;2023-06-26T11:46:16;159263.03;;;26.45;54.45
11888;BME280;6003;42.756;23.130;2023-06-26T11:48:43;159275.13;;;26.50;56.51
11888;BME280;6003;42.756;23.130;2023-06-26T11:51:12;159257.69;;;26.43;54.82
11888;BME280;6003;42.756;23.130;2023-06-26T11:53:40;159241.66;;;26.37;57.19
11888;BME280;6003;42.756;23.130;2023-06-26T11:56:08;159194.88;;;26.19;55.51
11888;BME280;6003;42.756;23.130;2023-06-26T11:58:55;159194.88;;;26.19;59.46
11888;BME280;6003;42.756;23.130;2023-06-26T12:01:22;159181.50;;;26.14;59.35
11888;BME280;6003;42.756;23.130;2023-06-26T12:03:50;159132.09;;;25.95;57.42
11888;BME280;6003;42.756;23.130;2023-06-26T12:06:17;159109.31;;;25.86;58.30
11888;BME280;6003;42.756;23.130;2023-06-26T12:08:45;159148.13;;;26.01;60.78
11888;BME280;6003;42.756;23.130;2023-06-26T12:11:13;159188.19;;;26.17;60.90
11888;BME280;6003;42.756;23.130;2023-06-26T12:13:41;159206.88;;;26.24;60.13
11888;BME280;6003;42.756;23.130;2023-06-26T12:16:08;159249.66;;;26.40;58.07
11888;BME280;6003;42.756;23.130;2023-06-26T12:18:35;159277.78;;;26.51;58.21
11888;BME280;6003;42.756;23.130;2023-06-26T12:21:02;159387.41;;;26.93;59.36
11888;BME280;6003;42.756;23.130;2023-06-26T12:23:38;159418.19;;;27.05;54.58
11888;BME280;6003;42.756;23.130;2023-06-26T12:26:18;159475.72;;;27.27;54.56
11888;BME280;6003;42.756;23.130;2023-06-26T12:28:47;159505.16;;;27.38;53.89
11888;BME280;6003;42.756;23.130;2023-06-26T12:31:15;159550.63;;;27.55;54.63
11888;BME280;6003;42.756;23.130;2023-06-26T12:33:42;159576.06;;;27.65;55.92
11888;BME280;6003;42.756;23.130;2023-06-26T12:36:11;159527.88;;;27.47;56.19
11888;BME280;6003;42.756;23.130;2023-06-26T12:38:39;159498.44;;;27.35;58.18
11888;BME280;6003;42.756;23.130;2023-06-26T12:41:12;159463.72;;;27.22;55.69
11888;BME280;6003;42.756;23.130;2023-06-26T12:43:39;159379.38;;;26.90;55.53
11888;BME280;6003;42.756;23.130;2023-06-26T12:46:08;159375.38;;;26.88;55.95
11888;BME280;6003;42.756;23.130;2023-06-26T12:48:38;159426.22;;;27.08;55.72
11888;BME280;6003;42.756;23.130;2023-06-26T12:51:12;159461.00;;;27.21;57.05
11888;BME280;6003;42.756;23.130;2023-06-26T12:53:39;159506.47;;;27.38;58.56